createdAt,value
2022-12-17T00:00:00.738Z,-2.05
2022-12-17T00:02:47.916Z,-1.95
2022-12-17T00:05:33.692Z,-2.11
2022-12-17T00:08:19.042Z,-2.27
2022-12-17T00:11:04.802Z,-2.33
2022-12-17T00:13:49.951Z,-2.31
2022-12-17T00:16:36.173Z,-2.37
2022-12-17T00:19:22.987Z,-2.45
2022-12-17T00:22:07.242Z,-2.31
2022-12-17T00:25:07.148Z,-2.23
2022-12-17T00:27:53.080Z,-2.36
2022-12-17T00:30:44.481Z,-2.34
2022-12-17T00:33:31.050Z,-2.24
2022-12-17T00:36:19.009Z,-2.18
2022-12-17T00:39:04.849Z,-2.27
2022-12-17T00:41:50.522Z,-2.08
2022-12-17T00:44:35.740Z,-2.24
2022-12-17T00:47:21.850Z,-2.15
2022-12-17T00:50:07.838Z,-2.09
2022-12-17T00:52:54.901Z,-2.09
2022-12-17T00:55:41.675Z,-2.13
2022-12-17T00:58:30.125Z,-2.15
2022-12-17T01:01:17.624Z,-2.16
2022-12-17T01:04:11.472Z,-2.03
2022-12-17T01:06:57.905Z,-2.25
2022-12-17T01:09:44.835Z,-2.29
2022-12-17T01:12:30.699Z,-2.19
2022-12-17T01:15:16.157Z,-2.02
2022-12-17T01:18:02.376Z,-2.05
2022-12-17T01:20:56.150Z,-2.20
2022-12-17T01:23:42.431Z,-2.27
2022-12-17T01:26:29.041Z,-2.21
2022-12-17T01:29:15.723Z,-2.25
2022-12-17T01:32:01.257Z,-2.28
2022-12-17T01:34:46.604Z,-2.32
2022-12-17T01:37:32.861Z,-2.54
2022-12-17T01:40:18.477Z,-2.62
2022-12-17T01:43:06.398Z,-2.54
2022-12-17T01:46:02.899Z,-2.75
2022-12-17T01:48:53.001Z,-2.68
2022-12-17T01:51:38.413Z,-2.73
2022-12-17T01:54:33.268Z,-2.76
2022-12-17T01:57:20.435Z,-2.87
2022-12-17T02:00:24.242Z,-2.87
2022-12-17T02:03:10.087Z,-2.83
2022-12-17T02:06:03.200Z,-3.43
2022-12-17T02:08:57.676Z,-3.37
2022-12-17T02:11:57.292Z,-3.36
2022-12-17T02:14:52.197Z,-3.38
2022-12-17T02:17:43.247Z,-3.53
2022-12-17T02:20:41.287Z,-3.72
2022-12-17T02:23:51.672Z,-4.02
2022-12-17T02:26:48.259Z,-4.04
2022-12-17T02:29:35.377Z,-4.26
2022-12-17T02:32:22.965Z,-4.44
2022-12-17T02:35:10.157Z,-4.55
2022-12-17T02:37:56.940Z,-4.48
2022-12-17T02:40:43.742Z,-4.32
2022-12-17T02:43:30.456Z,-4.43
2022-12-17T02:46:16.267Z,-4.47
2022-12-17T02:49:02.231Z,-4.61
2022-12-17T02:51:50.565Z,-4.58
2022-12-17T02:54:38.932Z,-4.60
2022-12-17T02:57:24.399Z,-4.68
2022-12-17T03:00:10.788Z,-5.03
2022-12-17T03:02:56.046Z,-5.03
2022-12-17T03:05:45.589Z,-5.06
2022-12-17T03:08:31.908Z,-5.02
2022-12-17T03:11:17.173Z,-5.00
2022-12-17T03:14:02.772Z,-5.00
2022-12-17T03:16:49.632Z,-4.84
2022-12-17T03:19:35.690Z,-4.73
2022-12-17T03:22:23.934Z,-4.74
2022-12-17T03:25:09.607Z,-4.75
2022-12-17T03:27:54.803Z,-4.72
2022-12-17T03:30:44.364Z,-4.70
2022-12-17T03:33:34.347Z,-4.76
2022-12-17T03:36:19.942Z,-4.78
2022-12-17T03:39:05.218Z,-4.86
2022-12-17T03:41:50.413Z,-4.88
2022-12-17T03:44:35.867Z,-4.96
2022-12-17T03:47:21.223Z,-4.96
2022-12-17T03:50:08.379Z,-5.04
2022-12-17T03:52:53.668Z,-5.32
2022-12-17T03:55:39.132Z,-5.50
2022-12-17T03:58:24.621Z,-5.66
2022-12-17T04:01:10.762Z,-5.90
2022-12-17T04:03:56.225Z,-6.05
2022-12-17T04:06:42.949Z,-6.13
2022-12-17T04:09:28.345Z,-6.16
2022-12-17T04:12:19.085Z,-6.14
2022-12-17T04:15:04.053Z,-6.14
2022-12-17T04:17:49.204Z,-6.21
2022-12-17T04:20:34.860Z,-6.27
2022-12-17T04:23:21.636Z,-6.29
2022-12-17T04:26:09.457Z,-6.43
2022-12-17T04:28:54.758Z,-6.54
2022-12-17T04:31:40.698Z,-6.49
2022-12-17T04:34:25.776Z,-6.69
2022-12-17T04:37:10.900Z,-6.59
2022-12-17T04:39:57.273Z,-6.55
2022-12-17T04:42:42.819Z,-6.50
2022-12-17T04:45:29.285Z,-6.45
2022-12-17T04:48:20.068Z,-6.42
2022-12-17T04:51:05.649Z,-6.57
2022-12-17T04:53:50.816Z,-6.76
2022-12-17T04:56:38.612Z,-6.93
2022-12-17T04:59:24.603Z,-7.03
2022-12-17T05:02:10.532Z,-7.16
2022-12-17T05:04:56.362Z,-7.15
2022-12-17T05:07:41.614Z,-7.15
2022-12-17T05:10:28.012Z,-7.14
2022-12-17T05:13:18.735Z,-7.19
2022-12-17T05:16:04.403Z,-7.22
2022-12-17T05:18:49.964Z,-7.13
2022-12-17T05:21:35.680Z,-7.20
2022-12-17T05:24:21.075Z,-7.24
2022-12-17T05:27:06.374Z,-7.27
2022-12-17T05:29:53.114Z,-7.26
2022-12-17T05:32:39.084Z,-7.30
2022-12-17T05:35:26.261Z,-7.33
2022-12-17T05:38:11.347Z,-7.35
2022-12-17T05:40:56.606Z,-7.41
2022-12-17T05:43:41.790Z,-7.47
2022-12-17T05:46:29.089Z,-7.57
2022-12-17T05:49:10.972Z,-7.68
2022-12-17T05:51:57.204Z,-7.80
2022-12-17T05:54:42.295Z,-7.91
2022-12-17T05:57:28.315Z,-7.97
2022-12-17T06:00:13.410Z,-8.04
2022-12-17T06:03:00.823Z,-8.15
2022-12-17T06:05:46.578Z,-8.08
2022-12-17T06:08:31.794Z,-8.18
2022-12-17T06:11:18.889Z,-8.23
2022-12-17T06:14:05.686Z,-8.20
2022-12-17T06:16:51.771Z,-8.16
2022-12-17T06:19:38.056Z,-8.05
2022-12-17T06:22:24.082Z,-7.98
2022-12-17T06:25:09.143Z,-7.89
2022-12-17T06:27:55.544Z,-8.10
2022-12-17T06:30:40.979Z,-8.12
2022-12-17T06:33:28.833Z,-8.10
2022-12-17T06:36:22.166Z,-8.08
2022-12-17T06:39:07.880Z,-8.12
2022-12-17T06:42:04.380Z,-8.16
2022-12-17T06:44:50.097Z,-8.11
2022-12-17T06:47:35.799Z,-8.19
2022-12-17T06:50:20.895Z,-8.25
2022-12-17T06:53:17.237Z,-8.26
2022-12-17T06:56:02.466Z,-8.23
2022-12-17T06:58:49.166Z,-8.31
2022-12-17T07:01:36.932Z,-8.40
2022-12-17T07:04:22.269Z,-8.51
2022-12-17T07:07:07.684Z,-8.61
2022-12-17T07:09:54.311Z,-8.67
2022-12-17T07:12:39.893Z,-8.80
2022-12-17T07:15:25.890Z,-9.29
2022-12-17T07:18:15.456Z,-9.43
2022-12-17T07:21:01.063Z,-9.43
2022-12-17T07:23:46.849Z,-9.40
2022-12-17T07:26:33.813Z,-9.37
2022-12-17T07:29:19.651Z,-9.24
2022-12-17T07:32:05.260Z,-9.10
2022-12-17T07:34:50.571Z,-8.95
2022-12-17T07:37:36.417Z,-8.84
2022-12-17T07:40:21.979Z,-8.79
2022-12-17T07:43:08.653Z,-8.62
2022-12-17T07:45:54.077Z,-8.51
2022-12-17T07:48:39.587Z,-8.45
2022-12-17T07:51:24.803Z,-8.26
2022-12-17T07:54:10.060Z,-8.06
2022-12-17T07:56:55.764Z,-7.91
2022-12-17T07:59:43.065Z,-7.78
2022-12-17T08:02:28.691Z,-7.54
2022-12-17T08:05:14.376Z,-7.51
2022-12-17T08:07:59.649Z,-7.67
2022-12-17T08:10:44.948Z,-7.35
2022-12-17T08:13:30.478Z,-7.31
2022-12-17T08:16:17.251Z,-7.24
2022-12-17T08:19:02.864Z,-7.24
2022-12-17T08:21:48.210Z,-6.94
2022-12-17T08:24:33.372Z,-6.80
2022-12-17T08:27:18.657Z,-6.66
2022-12-17T08:30:04.866Z,-6.42
2022-12-17T08:32:51.875Z,-6.30
2022-12-17T08:35:37.370Z,-6.06
2022-12-17T08:38:25.127Z,-5.29
2022-12-17T08:41:10.345Z,-3.34
2022-12-17T08:43:56.352Z,-1.78
2022-12-17T08:46:41.486Z,-0.24
2022-12-17T08:49:36.666Z,0.70
2022-12-17T08:52:22.227Z,1.98
2022-12-17T08:55:07.763Z,2.60
2022-12-17T08:57:53.047Z,3.13
2022-12-17T09:00:38.969Z,3.70
2022-12-17T09:03:25.440Z,4.42
2022-12-17T09:06:26.687Z,4.84
2022-12-17T09:09:12.463Z,5.10
2022-12-17T09:11:54.072Z,5.61
2022-12-17T09:14:39.705Z,6.16
2022-12-17T09:17:24.828Z,6.67
2022-12-17T09:20:10.056Z,6.80
2022-12-17T09:22:57.262Z,6.06
2022-12-17T09:25:43.285Z,5.00
2022-12-17T09:28:28.807Z,5.23
2022-12-17T09:31:17.249Z,6.19
2022-12-17T09:34:03.861Z,7.41
2022-12-17T09:36:51.312Z,8.15
2022-12-17T09:39:39.288Z,8.98
2022-12-17T09:42:33.179Z,9.74
2022-12-17T09:45:37.587Z,9.88
2022-12-17T09:48:32.630Z,10.58
2022-12-17T09:51:18.408Z,10.77
2022-12-17T09:54:20.590Z,11.17
2022-12-17T09:57:07.544Z,11.56
2022-12-17T09:59:54.802Z,11.78
2022-12-17T10:02:44.271Z,12.10
2022-12-17T10:05:33.647Z,12.41
2022-12-17T10:08:19.845Z,12.33
2022-12-17T10:11:05.853Z,12.63
2022-12-17T10:13:52.675Z,13.15
2022-12-17T10:16:44.524Z,13.60
2022-12-17T10:19:36.165Z,13.60
2022-12-17T10:22:30.086Z,13.64
2022-12-17T10:25:15.338Z,13.99
2022-12-17T10:28:00.800Z,14.32
2022-12-17T10:30:48.286Z,15.22
2022-12-17T10:33:38.206Z,15.50
2022-12-17T10:36:37.542Z,15.80
2022-12-17T10:39:23.843Z,15.46
2022-12-17T10:42:09.188Z,15.43
2022-12-17T10:44:56.703Z,15.56
2022-12-17T10:47:45.362Z,15.87
2022-12-17T10:50:33.734Z,16.06
2022-12-17T10:53:20.155Z,15.70
2022-12-17T10:56:13.633Z,15.63
2022-12-17T10:59:03.287Z,15.84
2022-12-17T11:01:49.478Z,15.69
2022-12-17T11:04:44.938Z,15.12
2022-12-17T11:07:36.636Z,14.47
2022-12-17T11:10:24.576Z,13.94
2022-12-17T11:13:14.025Z,13.99
2022-12-17T11:16:02.975Z,14.19
2022-12-17T11:18:55.333Z,14.05
2022-12-17T11:21:45.336Z,13.86
2022-12-17T11:24:35.343Z,13.49
2022-12-17T11:27:26.412Z,13.70
2022-12-17T11:30:11.965Z,13.96
2022-12-17T11:33:19.197Z,13.81
2022-12-17T11:36:10.733Z,13.17
2022-12-17T11:38:59.855Z,12.66
2022-12-17T11:41:53.748Z,12.28
2022-12-17T11:44:51.975Z,11.50
2022-12-17T11:47:47.026Z,10.74
2022-12-17T11:50:44.410Z,9.98
2022-12-17T11:53:41.342Z,9.24
2022-12-17T11:56:40.716Z,8.53
2022-12-17T11:59:35.473Z,8.04
2022-12-17T12:02:30.445Z,7.66
2022-12-17T12:05:36.545Z,7.46
2022-12-17T12:08:33.512Z,7.57
2022-12-17T12:11:31.944Z,7.96
2022-12-17T12:14:28.246Z,8.44
2022-12-17T12:17:25.369Z,9.15
2022-12-17T12:20:23.482Z,9.81
2022-12-17T12:23:19.147Z,10.49
2022-12-17T12:26:20.410Z,10.90
2022-12-17T12:29:10.649Z,10.41
2022-12-17T12:32:04.509Z,8.98
2022-12-17T12:34:53.741Z,7.40
2022-12-17T12:37:40.225Z,6.46
2022-12-17T12:40:34.117Z,5.64
2022-12-17T12:43:23.512Z,4.93
2022-12-17T12:46:16.060Z,4.34
2022-12-17T12:49:08.585Z,3.84
2022-12-17T12:51:55.901Z,3.44
2022-12-17T12:54:47.527Z,3.14
2022-12-17T12:57:47.324Z,2.89
2022-12-17T13:00:48.531Z,2.69
2022-12-17T13:03:40.250Z,2.47
2022-12-17T13:06:09.797Z,2.30
2022-12-17T13:08:37.974Z,2.15
2022-12-17T13:11:28.397Z,1.99
2022-12-17T13:14:02.030Z,1.96
2022-12-17T13:16:40.451Z,2.02
2022-12-17T13:19:20.845Z,1.91
2022-12-17T13:21:50.170Z,1.83
2022-12-17T13:24:25.902Z,1.72
2022-12-17T13:26:54.615Z,1.51
2022-12-17T13:29:28.130Z,1.36
2022-12-17T13:32:05.014Z,1.30
2022-12-17T13:34:44.671Z,1.24
2022-12-17T13:37:27.531Z,1.16
2022-12-17T13:40:04.576Z,1.09
2022-12-17T13:42:36.089Z,1.02
2022-12-17T13:45:04.353Z,0.96
2022-12-17T13:47:34.546Z,0.88
2022-12-17T13:50:33.364Z,0.81
2022-12-17T13:52:55.724Z,0.73
2022-12-17T13:55:26.362Z,0.67
2022-12-17T13:57:55.825Z,0.68
2022-12-17T14:00:26.212Z,0.75
2022-12-17T14:02:54.756Z,0.79
2022-12-17T14:05:26.342Z,0.77
2022-12-17T14:07:58.821Z,0.62
2022-12-17T14:10:27.132Z,0.44
2022-12-17T14:13:04.348Z,0.25
2022-12-17T14:15:33.237Z,0.09
2022-12-17T14:18:01.640Z,-0.09
2022-12-17T14:20:31.945Z,-0.26
2022-12-17T14:23:05.580Z,-0.36
2022-12-17T14:25:36.539Z,-0.50
2022-12-17T14:28:06.750Z,-0.63
2022-12-17T14:30:40.508Z,-0.72
2022-12-17T14:33:27.658Z,-0.80
2022-12-17T14:36:00.697Z,-0.87
2022-12-17T14:38:38.494Z,-0.96
2022-12-17T14:41:30.844Z,-1.08
2022-12-17T14:44:01.095Z,-1.19
2022-12-17T14:46:29.681Z,-1.28
2022-12-17T14:49:02.084Z,-1.40
2022-12-17T14:51:32.665Z,-1.59
2022-12-17T14:54:18.680Z,-1.77
2022-12-17T14:56:48.007Z,-1.94
2022-12-17T14:59:26.966Z,-2.05
2022-12-17T15:01:56.312Z,-2.19
2022-12-17T15:04:24.997Z,-2.28
2022-12-17T15:06:56.105Z,-2.39
2022-12-17T15:09:25.603Z,-2.50
2022-12-17T15:11:53.655Z,-2.60
2022-12-17T15:14:23.260Z,-2.66
2022-12-17T15:16:50.963Z,-2.72
2022-12-17T15:19:19.160Z,-2.81
2022-12-17T15:21:46.910Z,-2.88
2022-12-17T15:24:18.684Z,-3.00
2022-12-17T15:26:48.388Z,-3.12
2022-12-17T15:29:16.398Z,-3.20
2022-12-17T15:31:44.101Z,-3.27
2022-12-17T15:34:13.154Z,-3.29
2022-12-17T15:36:40.795Z,-3.36
2022-12-17T15:39:09.554Z,-3.37
2022-12-17T15:41:55.126Z,-3.49
2022-12-17T15:44:24.704Z,-3.62
2022-12-17T15:46:52.350Z,-3.72
2022-12-17T15:49:21.166Z,-3.76
2022-12-17T15:51:49.224Z,-3.81
2022-12-17T15:54:16.894Z,-3.89
2022-12-17T15:56:53.648Z,-3.97
2022-12-17T15:59:21.328Z,-4.07
2022-12-17T16:01:50.667Z,-4.14
2022-12-17T16:04:24.703Z,-4.23
2022-12-17T16:06:53.091Z,-4.39
2022-12-17T16:09:24.321Z,-4.50
2022-12-17T16:11:54.085Z,-4.55
2022-12-17T16:14:22.802Z,-4.64
2022-12-17T16:16:52.431Z,-4.71
2022-12-17T16:19:20.395Z,-4.69
2022-12-17T16:21:48.025Z,-4.70
2022-12-17T16:24:16.315Z,-4.61
2022-12-17T16:26:43.953Z,-4.55
2022-12-17T16:29:11.936Z,-4.51
2022-12-17T16:31:39.788Z,-4.47
2022-12-17T16:34:11.720Z,-4.42
2022-12-17T16:36:39.435Z,-4.34
2022-12-17T16:39:07.575Z,-4.20
2022-12-17T16:41:35.502Z,-4.11
2022-12-17T16:44:04.163Z,-4.05
2022-12-17T16:46:33.825Z,-4.11
2022-12-17T16:49:06.348Z,-4.07
2022-12-17T16:51:36.153Z,-4.15
2022-12-17T16:54:06.472Z,-4.22
2022-12-17T16:56:39.620Z,-4.32
2022-12-17T16:59:08.574Z,-4.21
2022-12-17T17:01:37.917Z,-4.26
2022-12-17T17:04:06.424Z,-4.24
2022-12-17T17:06:39.531Z,-4.22
2022-12-17T17:09:07.724Z,-4.22
2022-12-17T17:11:35.745Z,-4.19
2022-12-17T17:14:04.861Z,-4.14
2022-12-17T17:16:34.193Z,-4.11
2022-12-17T17:19:03.160Z,-4.04
2022-12-17T17:21:34.189Z,-3.87
2022-12-17T17:24:06.969Z,-3.83
2022-12-17T17:26:36.007Z,-3.73
2022-12-17T17:29:04.596Z,-3.71
2022-12-17T17:32:08.241Z,-3.73
2022-12-17T17:34:21.274Z,-3.67
2022-12-17T17:36:49.578Z,-3.63
2022-12-17T17:39:18.689Z,-3.63
2022-12-17T17:41:46.611Z,-3.48
2022-12-17T17:44:15.038Z,-3.40
2022-12-17T17:46:43.660Z,-3.43
2022-12-17T17:49:12.518Z,-3.41
2022-12-17T17:54:32.397Z,-3.17
2022-12-17T17:57:00.161Z,-3.23
2022-12-17T17:59:33.300Z,-3.19
2022-12-17T18:02:03.011Z,-3.14
2022-12-17T18:04:31.116Z,-3.17
2022-12-17T18:09:48.566Z,-2.96
2022-12-17T18:12:35.162Z,-2.98
2022-12-17T18:15:14.210Z,-2.94
2022-12-17T18:17:42.823Z,-2.97
2022-12-17T18:20:11.920Z,-2.91
2022-12-17T18:22:39.548Z,-2.83
2022-12-17T18:25:09.334Z,-2.81
2022-12-17T18:27:37.098Z,-2.89
2022-12-17T18:30:05.334Z,-2.83
2022-12-17T18:32:33.208Z,-2.84
2022-12-17T18:35:00.854Z,-2.81
2022-12-17T18:37:29.202Z,-2.80
2022-12-17T18:39:56.824Z,-2.81
2022-12-17T18:42:44.114Z,-2.81
2022-12-17T18:45:13.147Z,-2.78
2022-12-17T18:47:42.441Z,-2.80
2022-12-17T18:50:10.950Z,-2.79
2022-12-17T18:52:39.273Z,-2.74
2022-12-17T18:55:08.592Z,-2.74
2022-12-17T18:57:37.901Z,-2.67
2022-12-17T19:00:06.952Z,-2.71
2022-12-17T19:02:35.305Z,-2.72
2022-12-17T19:05:03.040Z,-2.76
2022-12-17T19:07:30.777Z,-2.83
2022-12-17T19:09:58.399Z,-2.81
2022-12-17T19:12:26.133Z,-2.76
2022-12-17T19:14:55.093Z,-2.72
2022-12-17T19:17:22.966Z,-2.69
2022-12-17T19:19:50.760Z,-2.69
2022-12-17T19:22:18.666Z,-2.60
2022-12-17T19:24:46.706Z,-2.57
2022-12-17T19:27:14.400Z,-2.47
2022-12-17T19:29:46.221Z,-2.45
2022-12-17T19:32:18.430Z,-2.45
2022-12-17T19:34:46.039Z,-2.41
2022-12-17T19:37:13.911Z,-2.45
2022-12-17T19:39:41.557Z,-2.40
2022-12-17T19:42:24.425Z,-2.41
2022-12-17T19:44:53.480Z,-2.38
2022-12-17T19:47:24.112Z,-2.38
2022-12-17T19:49:51.829Z,-2.41
2022-12-17T19:52:19.935Z,-2.51
2022-12-17T19:54:49.570Z,-2.43
2022-12-17T19:57:17.555Z,-2.43
2022-12-17T19:59:45.176Z,-2.42
2022-12-17T20:02:13.345Z,-2.39
2022-12-17T20:04:42.443Z,-2.37
2022-12-17T20:07:10.053Z,-2.41
2022-12-17T20:09:38.043Z,-2.38
2022-12-17T20:12:06.223Z,-2.39
2022-12-17T20:14:35.260Z,-2.45
2022-12-17T20:17:04.927Z,-2.52
2022-12-17T20:19:34.882Z,-2.43
2022-12-17T20:22:05.805Z,-2.38
2022-12-17T20:24:34.009Z,-2.41
2022-12-17T20:27:02.241Z,-2.45
2022-12-17T20:29:30.519Z,-2.46
2022-12-17T20:31:58.404Z,-2.51
2022-12-17T20:34:26.584Z,-2.53
2022-12-17T20:36:54.757Z,-2.51
2022-12-17T20:39:27.693Z,-2.50
2022-12-17T20:41:56.391Z,-2.44
2022-12-17T20:44:24.424Z,-2.48
2022-12-17T20:46:52.040Z,-2.46
2022-12-17T20:49:20.255Z,-2.46
2022-12-17T20:51:47.986Z,-2.46
2022-12-17T20:54:15.804Z,-2.46
2022-12-17T20:56:44.787Z,-2.50
2022-12-17T20:59:16.427Z,-2.46
2022-12-17T21:01:45.017Z,-2.45
2022-12-17T21:04:14.395Z,-2.46
2022-12-17T21:06:44.451Z,-2.44
2022-12-17T21:09:13.444Z,-2.48
2022-12-17T21:11:44.085Z,-2.48
2022-12-17T21:14:14.965Z,-2.46
2022-12-17T21:16:44.295Z,-2.50
2022-12-17T21:19:15.421Z,-2.50
2022-12-17T21:21:43.168Z,-2.56
2022-12-17T21:24:11.172Z,-2.57
2022-12-17T21:26:40.973Z,-2.59
2022-12-17T21:29:11.375Z,-2.65
2022-12-17T21:31:41.202Z,-2.65
2022-12-17T21:34:12.780Z,-2.63
2022-12-17T21:36:41.086Z,-2.65
2022-12-17T21:39:10.325Z,-2.63
2022-12-17T21:41:44.587Z,-2.60
2022-12-17T21:44:15.843Z,-2.62
2022-12-17T21:46:45.590Z,-2.61
2022-12-17T21:49:18.561Z,-2.60
2022-12-17T21:51:46.428Z,-2.58
2022-12-17T21:54:19.323Z,-2.58
2022-12-17T21:56:47.822Z,-2.55
2022-12-17T21:59:17.784Z,-2.57
2022-12-17T22:01:45.601Z,-2.58
2022-12-17T22:04:13.741Z,-2.55
2022-12-17T22:06:48.750Z,-2.54
2022-12-17T22:09:26.828Z,-2.54
2022-12-17T22:12:28.747Z,-2.53
2022-12-17T22:14:58.075Z,-2.52
2022-12-17T22:17:26.303Z,-2.54
2022-12-17T22:19:54.515Z,-2.55
2022-12-17T22:22:22.156Z,-2.55
2022-12-17T22:24:50.307Z,-2.60
2022-12-17T22:27:18.053Z,-2.62
2022-12-17T22:30:03.931Z,-2.62
2022-12-17T22:32:50.616Z,-2.72
2022-12-17T22:36:11.136Z,-2.74
2022-12-17T22:42:13.063Z,-2.75
2022-12-17T22:44:42.607Z,-2.73
2022-12-17T22:44:45.245Z,-2.73
2022-12-17T22:46:40.371Z,-2.71
2022-12-17T22:49:09.651Z,-2.69
2022-12-17T22:51:39.161Z,-2.74
2022-12-17T22:54:08.943Z,-2.69
2022-12-17T22:57:18.395Z,-2.71
2022-12-17T22:59:26.548Z,-2.71
2022-12-17T23:01:54.615Z,-2.72
2022-12-17T23:04:23.925Z,-2.72
2022-12-17T23:06:51.864Z,-2.72
2022-12-17T23:09:20.728Z,-2.81
2022-12-17T23:11:50.228Z,-2.81
2022-12-17T23:14:18.649Z,-2.79
2022-12-17T23:16:47.167Z,-2.86
2022-12-17T23:19:14.860Z,-2.84
2022-12-17T23:21:44.334Z,-2.89
2022-12-17T23:24:11.965Z,-2.90
2022-12-17T23:26:40.811Z,-2.95
2022-12-17T23:29:14.884Z,-2.96
2022-12-17T23:31:45.295Z,-2.95
2022-12-17T23:34:12.985Z,-2.98
2022-12-17T23:36:40.886Z,-2.98
2022-12-17T23:39:10.185Z,-2.97
2022-12-17T23:41:38.285Z,-3.06
2022-12-17T23:44:06.162Z,-3.09
2022-12-17T23:46:34.799Z,-3.10
2022-12-17T23:49:06.012Z,-3.12
2022-12-17T23:51:34.376Z,-3.15
2022-12-17T23:54:02.014Z,-3.15
2022-12-17T23:56:31.420Z,-3.13
2022-12-17T23:59:01.700Z,-3.15
